QFA871 YSSY-YMML
Flight info
| Callsign | QFA871 |
|---|---|
| Flight time | 1h 37m |
| Altitude | 36000 |
| Route | WOL DCT CB DCT BOYSE |
| Aircraft | B38M/M-SDE1FGHILORVWXY/HB1 |
Departure
| Time | 2026-05-04 10:35 |
|---|---|
| Airport | Sydney Kingsford Smith International Airport (YSSY) |
Arrival
| Time | 2026-05-04 12:13 |
|---|---|
| Airport | Melbourne Airport (YMML) |
| Time | Latitude | Longitude | Altitude | Speed | Heading |
|---|---|---|---|---|---|
| 2026-05-04 09:46 | -33.93155 | 151.17911 | 32 ft | 0 kts | 191° |
| 2026-05-04 09:49 | -33.93160 | 151.17969 | 32 ft | 0 kts | 191° |
| 2026-05-04 09:51 | -33.93154 | 151.17913 | 32 ft | 0 kts | 191° |
| 2026-05-04 10:13 | -33.93138 | 151.17916 | 32 ft | 4 kts | 188° |
| 2026-05-04 10:14 | -33.93117 | 151.17920 | 32 ft | 3 kts | 191° |
| 2026-05-04 10:14 | -33.93095 | 151.17931 | 32 ft | 3 kts | 209° |
| 2026-05-04 10:16 | -33.93090 | 151.17995 | 32 ft | 0 kts | 280° |
| 2026-05-04 10:19 | -33.93088 | 151.17977 | 32 ft | 0 kts | 280° |
| 2026-05-04 10:21 | -33.93087 | 151.17976 | 32 ft | 0 kts | 280° |
| 2026-05-04 10:21 | -33.93086 | 151.17968 | 32 ft | 3 kts | 279° |
| 2026-05-04 10:21 | -33.93079 | 151.17914 | 32 ft | 11 kts | 279° |
| 2026-05-04 10:22 | -33.93016 | 151.17655 | 32 ft | 18 kts | 283° |
| 2026-05-04 10:22 | -33.93017 | 151.17560 | 33 ft | 10 kts | 227° |
| 2026-05-04 10:22 | -33.93083 | 151.17521 | 33 ft | 11 kts | 191° |
| 2026-05-04 10:23 | -33.93165 | 151.17536 | 32 ft | 13 kts | 167° |
| 2026-05-04 10:23 | -33.93267 | 151.17562 | 32 ft | 18 kts | 168° |
| 2026-05-04 10:25 | -33.94236 | 151.17865 | 32 ft | 29 kts | 168° |
| 2026-05-04 10:25 | -33.94430 | 151.17910 | 32 ft | 25 kts | 185° |
| 2026-05-04 10:25 | -33.94551 | 151.17889 | 32 ft | 15 kts | 168° |
| 2026-05-04 10:25 | -33.94669 | 151.17919 | 32 ft | 20 kts | 168° |
| 2026-05-04 10:26 | -33.94837 | 151.17963 | 32 ft | 30 kts | 168° |
| 2026-05-04 10:26 | -33.95027 | 151.18013 | 33 ft | 13 kts | 168° |
| 2026-05-04 10:26 | -33.95084 | 151.18036 | 33 ft | 9 kts | 139° |
| 2026-05-04 10:26 | -33.95099 | 151.18112 | 33 ft | 10 kts | 77° |
| 2026-05-04 10:27 | -33.95081 | 151.18210 | 33 ft | 14 kts | 77° |
| 2026-05-04 10:27 | -33.95056 | 151.18349 | 33 ft | 18 kts | 78° |
| 2026-05-04 10:27 | -33.95043 | 151.18419 | 33 ft | 4 kts | 76° |
| 2026-05-04 10:27 | -33.95042 | 151.18425 | 33 ft | 0 kts | 76° |
| 2026-05-04 10:28 | -33.95041 | 151.18428 | 33 ft | 2 kts | 76° |
| 2026-05-04 10:28 | -33.95042 | 151.18473 | 33 ft | 11 kts | 112° |
| 2026-05-04 10:28 | -33.95125 | 151.18554 | 33 ft | 18 kts | 137° |
| 2026-05-04 10:28 | -33.95228 | 151.18664 | 32 ft | 22 kts | 143° |
| 2026-05-04 10:29 | -33.95396 | 151.18740 | 32 ft | 29 kts | 167° |
| 2026-05-04 10:29 | -33.95598 | 151.18794 | 32 ft | 30 kts | 167° |
| 2026-05-04 10:29 | -33.95807 | 151.18851 | 32 ft | 31 kts | 167° |
| 2026-05-04 10:29 | -33.96023 | 151.18902 | 32 ft | 32 kts | 167° |
| 2026-05-04 10:30 | -33.96244 | 151.18960 | 32 ft | 33 kts | 169° |
| 2026-05-04 10:30 | -33.96472 | 151.19018 | 32 ft | 34 kts | 168° |
| 2026-05-04 10:30 | -33.96691 | 151.19073 | 32 ft | 24 kts | 173° |
| 2026-05-04 10:30 | -33.96862 | 151.19075 | 32 ft | 25 kts | 166° |
| 2026-05-04 10:31 | -33.97037 | 151.19121 | 33 ft | 26 kts | 168° |
| 2026-05-04 10:31 | -33.97118 | 151.19159 | 33 ft | 10 kts | 126° |
| 2026-05-04 10:32 | -33.97114 | 151.19265 | 31 ft | 0 kts | 76° |
| 2026-05-04 10:34 | -33.97108 | 151.19294 | 30 ft | 8 kts | 76° |
| 2026-05-04 10:34 | -33.97092 | 151.19363 | 28 ft | 9 kts | 64° |
| 2026-05-04 10:34 | -33.97040 | 151.19370 | 27 ft | 10 kts | 341° |
| 2026-05-04 10:34 | -33.96920 | 151.19338 | 26 ft | 40 kts | 347° |
| 2026-05-04 10:35 | -33.96368 | 151.19192 | 27 ft | 120 kts | 348° |
| 2026-05-04 10:35 | -33.95337 | 151.18914 | 125 ft | 175 kts | 346° |
| 2026-05-04 10:35 | -33.94124 | 151.18608 | 816 ft | 189 kts | 350° |
| 2026-05-04 10:35 | -33.92762 | 151.18595 | 1670 ft | 210 kts | 11° |
| 2026-05-04 10:36 | -33.91448 | 151.19617 | 1954 ft | 249 kts | 44° |
| 2026-05-04 10:36 | -33.90778 | 151.21646 | 2322 ft | 279 kts | 83° |
| 2026-05-04 10:36 | -33.91155 | 151.23997 | 2893 ft | 297 kts | 116° |
| 2026-05-04 10:36 | -33.92400 | 151.26003 | 3652 ft | 304 kts | 131° |
| 2026-05-04 10:37 | -33.93767 | 151.27919 | 4266 ft | 300 kts | 123° |
| 2026-05-04 10:37 | -33.94587 | 151.30146 | 4179 ft | 284 kts | 94° |
| 2026-05-04 10:37 | -33.94508 | 151.32420 | 4301 ft | 273 kts | 71° |
| 2026-05-04 10:37 | -33.94110 | 151.34670 | 4479 ft | 276 kts | 75° |
| 2026-05-04 10:39 | -33.93185 | 151.48537 | 4983 ft | 278 kts | 86° |
| 2026-05-04 10:39 | -33.93517 | 151.50853 | 5033 ft | 287 kts | 108° |
| 2026-05-04 10:39 | -33.94591 | 151.52878 | 5773 ft | 291 kts | 132° |
| 2026-05-04 10:40 | -33.96250 | 151.54281 | 6636 ft | 296 kts | 155° |
| 2026-05-04 10:40 | -33.98185 | 151.55216 | 7283 ft | 303 kts | 156° |
| 2026-05-04 10:40 | -34.00140 | 151.56213 | 8012 ft | 306 kts | 156° |
| 2026-05-04 10:40 | -34.02133 | 151.57149 | 8772 ft | 308 kts | 168° |
| 2026-05-04 10:41 | -34.04245 | 151.57201 | 9536 ft | 304 kts | 197° |
| 2026-05-04 10:41 | -34.06157 | 151.56187 | 10239 ft | 299 kts | 219° |
| 2026-05-04 10:41 | -34.07688 | 151.54436 | 10596 ft | 309 kts | 237° |
| 2026-05-04 10:41 | -34.09022 | 151.52316 | 10967 ft | 327 kts | 235° |
| 2026-05-04 10:42 | -34.10461 | 151.50083 | 11218 ft | 347 kts | 236° |
| 2026-05-04 10:42 | -34.11985 | 151.47754 | 11559 ft | 360 kts | 234° |
| 2026-05-04 10:42 | -34.13554 | 151.45353 | 12128 ft | 365 kts | 235° |
| 2026-05-04 10:42 | -34.15125 | 151.42925 | 12739 ft | 371 kts | 235° |
| 2026-05-04 10:43 | -34.16743 | 151.40430 | 13129 ft | 381 kts | 234° |
| 2026-05-04 10:44 | -34.28434 | 151.22204 | 17370 ft | 404 kts | 236° |
| 2026-05-04 10:45 | -34.30159 | 151.19503 | 17933 ft | 408 kts | 236° |
| 2026-05-04 10:45 | -34.31902 | 151.16772 | 18454 ft | 411 kts | 236° |
| 2026-05-04 10:45 | -34.33656 | 151.14023 | 18930 ft | 414 kts | 236° |
| 2026-05-04 10:45 | -34.35415 | 151.11263 | 19450 ft | 415 kts | 237° |
| 2026-05-04 10:46 | -34.37182 | 151.08485 | 19961 ft | 417 kts | 237° |
| 2026-05-04 10:46 | -34.38955 | 151.05699 | 20454 ft | 419 kts | 237° |
| 2026-05-04 10:46 | -34.40717 | 151.02925 | 20947 ft | 422 kts | 237° |
| 2026-05-04 10:46 | -34.42514 | 151.00093 | 21366 ft | 426 kts | 237° |
| 2026-05-04 10:47 | -34.44327 | 150.97236 | 21842 ft | 428 kts | 238° |
| 2026-05-04 10:47 | -34.46147 | 150.94365 | 22323 ft | 430 kts | 238° |
| 2026-05-04 10:47 | -34.47973 | 150.91484 | 22777 ft | 433 kts | 238° |
| 2026-05-04 10:47 | -34.49815 | 150.88571 | 23045 ft | 437 kts | 238° |
| 2026-05-04 10:49 | -34.62698 | 150.67655 | 25066 ft | 447 kts | 239° |
| 2026-05-04 10:49 | -34.64535 | 150.64604 | 25056 ft | 447 kts | 239° |
| 2026-05-04 10:50 | -34.66337 | 150.61611 | 25062 ft | 442 kts | 239° |
| 2026-05-04 10:51 | -34.84608 | 150.48158 | 26903 ft | 469 kts | 203° |
| 2026-05-04 10:52 | -34.87730 | 150.46951 | 27244 ft | 472 kts | 203° |
| 2026-05-04 10:52 | -34.90863 | 150.45737 | 27589 ft | 474 kts | 203° |
| 2026-05-04 10:52 | -34.93987 | 150.44439 | 27886 ft | 473 kts | 209° |
| 2026-05-04 10:54 | -35.07665 | 150.23163 | 30066 ft | 462 kts | 243° |
| 2026-05-04 10:54 | -35.09409 | 150.19863 | 30447 ft | 462 kts | 243° |
| 2026-05-04 10:56 | -35.21598 | 149.96772 | 32979 ft | 459 kts | 243° |
| 2026-05-04 10:56 | -35.23334 | 149.93488 | 33360 ft | 458 kts | 243° |
| 2026-05-04 10:56 | -35.25062 | 149.90220 | 33736 ft | 457 kts | 243° |
| 2026-05-04 10:57 | -35.26763 | 149.87002 | 34118 ft | 456 kts | 243° |
| 2026-05-04 10:57 | -35.28463 | 149.83744 | 34472 ft | 451 kts | 246° |
| 2026-05-04 10:57 | -35.29979 | 149.80405 | 34828 ft | 447 kts | 247° |
| 2026-05-04 10:57 | -35.31491 | 149.77092 | 35174 ft | 445 kts | 246° |
| 2026-05-04 10:58 | -35.33008 | 149.73802 | 35522 ft | 443 kts | 246° |
| 2026-05-04 10:58 | -35.34522 | 149.70532 | 35841 ft | 440 kts | 246° |
| 2026-05-04 10:58 | -35.36032 | 149.67274 | 36066 ft | 440 kts | 246° |
| 2026-05-04 10:59 | -35.39040 | 149.60783 | 36049 ft | 436 kts | 247° |
| 2026-05-04 10:59 | -35.42030 | 149.54315 | 36052 ft | 435 kts | 247° |
| 2026-05-04 11:00 | -35.45017 | 149.47845 | 36059 ft | 436 kts | 247° |
| 2026-05-04 11:02 | -35.56960 | 149.21846 | 36054 ft | 437 kts | 247° |
| 2026-05-04 11:05 | -35.78728 | 148.73939 | 36043 ft | 439 kts | 248° |
| 2026-05-04 11:06 | -35.81693 | 148.67361 | 36034 ft | 438 kts | 248° |
| 2026-05-04 11:06 | -35.84647 | 148.60793 | 36036 ft | 439 kts | 248° |
| 2026-05-04 11:10 | -36.08733 | 148.16373 | 36065 ft | 446 kts | 243° |
| 2026-05-04 11:12 | -36.22829 | 147.91131 | 36085 ft | 445 kts | 244° |
| 2026-05-04 11:12 | -36.26329 | 147.84841 | 36061 ft | 443 kts | 244° |
| 2026-05-04 11:13 | -36.29808 | 147.78574 | 36052 ft | 445 kts | 244° |
| 2026-05-04 11:13 | -36.33310 | 147.72250 | 36062 ft | 445 kts | 244° |
| 2026-05-04 11:14 | -36.36808 | 147.65913 | 36052 ft | 444 kts | 244° |
| 2026-05-04 11:16 | -36.50750 | 147.40539 | 36047 ft | 445 kts | 244° |
| 2026-05-04 11:16 | -36.54206 | 147.34220 | 36066 ft | 444 kts | 244° |
| 2026-05-04 11:17 | -36.57682 | 147.27853 | 36053 ft | 445 kts | 244° |
| 2026-05-04 11:19 | -36.71584 | 147.02276 | 36037 ft | 447 kts | 244° |
| 2026-05-04 11:19 | -36.75057 | 146.95843 | 36053 ft | 448 kts | 244° |
| 2026-05-04 11:20 | -36.78536 | 146.89396 | 36078 ft | 448 kts | 244° |
| 2026-05-04 11:20 | -36.82016 | 146.82936 | 36075 ft | 449 kts | 244° |
| 2026-05-04 11:22 | -36.95943 | 146.56953 | 36034 ft | 451 kts | 244° |
| 2026-05-04 11:23 | -36.99408 | 146.50459 | 36024 ft | 451 kts | 244° |
| 2026-05-04 11:24 | -37.09319 | 146.30587 | 36025 ft | 431 kts | 263° |
| 2026-05-04 11:25 | -37.09735 | 146.26952 | 36020 ft | 415 kts | 277° |
| 2026-05-04 11:25 | -37.09351 | 146.23441 | 36018 ft | 404 kts | 291° |
| 2026-05-04 11:25 | -37.08248 | 146.20242 | 36018 ft | 395 kts | 305° |
| 2026-05-04 11:26 | -37.04565 | 146.15713 | 36028 ft | 358 kts | 330° |
| 2026-05-04 11:27 | -36.89303 | 146.24733 | 36061 ft | 411 kts | 44° |
| 2026-05-04 11:28 | -36.85939 | 146.30551 | 36035 ft | 413 kts | 45° |
| 2026-05-04 11:28 | -36.82591 | 146.36347 | 36016 ft | 411 kts | 45° |
| 2026-05-04 11:29 | -36.79359 | 146.42221 | 36035 ft | 414 kts | 45° |
| 2026-05-04 11:29 | -36.76852 | 146.48781 | 36023 ft | 439 kts | 75° |
| 2026-05-04 11:31 | -36.91541 | 146.61605 | 36027 ft | 422 kts | 220° |
| 2026-05-04 11:33 | -37.03579 | 146.42517 | 36024 ft | 399 kts | 245° |
| 2026-05-04 11:33 | -37.06685 | 146.36762 | 36038 ft | 399 kts | 245° |
| 2026-05-04 11:34 | -37.10364 | 146.31500 | 36006 ft | 422 kts | 221° |
| 2026-05-04 11:34 | -37.13075 | 146.29928 | 36020 ft | 440 kts | 201° |
| 2026-05-04 11:34 | -37.16163 | 146.29461 | 35993 ft | 456 kts | 181° |
| 2026-05-04 11:35 | -37.19301 | 146.30251 | 35989 ft | 466 kts | 160° |
| 2026-05-04 11:35 | -37.22129 | 146.32251 | 35964 ft | 470 kts | 139° |
| 2026-05-04 11:35 | -37.24335 | 146.35231 | 35998 ft | 465 kts | 119° |
| 2026-05-04 11:35 | -37.25705 | 146.38857 | 35977 ft | 456 kts | 98° |
| 2026-05-04 11:36 | -37.26094 | 146.42723 | 35967 ft | 438 kts | 78° |
| 2026-05-04 11:36 | -37.25513 | 146.46370 | 35985 ft | 418 kts | 59° |
| 2026-05-04 11:36 | -37.24152 | 146.49490 | 36017 ft | 403 kts | 46° |
| 2026-05-04 11:36 | -37.22595 | 146.52444 | 35990 ft | 408 kts | 47° |
| 2026-05-04 11:37 | -37.19462 | 146.58404 | 36010 ft | 410 kts | 46° |
| 2026-05-04 11:37 | -37.16282 | 146.64334 | 36007 ft | 409 kts | 47° |
| 2026-05-04 11:38 | -37.13086 | 146.70208 | 36010 ft | 407 kts | 45° |
| 2026-05-04 11:38 | -37.09380 | 146.75376 | 35985 ft | 384 kts | 23° |
| 2026-05-04 11:39 | -37.07027 | 146.76777 | 36028 ft | 367 kts | 7° |
| 2026-05-04 11:39 | -37.04589 | 146.77244 | 35998 ft | 354 kts | 353° |
| 2026-05-04 11:40 | -36.95490 | 146.65442 | 36006 ft | 361 kts | 278° |
| 2026-05-04 11:41 | -36.95668 | 146.62272 | 36035 ft | 371 kts | 267° |
| 2026-05-04 11:41 | -36.97109 | 146.55978 | 36023 ft | 388 kts | 252° |
| 2026-05-04 11:42 | -36.99761 | 146.50025 | 36004 ft | 395 kts | 248° |
| 2026-05-04 11:42 | -37.02730 | 146.44210 | 36025 ft | 398 kts | 246° |
| 2026-05-04 11:43 | -37.05793 | 146.38439 | 36038 ft | 398 kts | 245° |
| 2026-05-04 11:43 | -37.09085 | 146.32791 | 35866 ft | 412 kts | 231° |
| 2026-05-04 11:43 | -37.11477 | 146.30747 | 36023 ft | 426 kts | 212° |
| 2026-05-04 11:44 | -37.14314 | 146.29591 | 35857 ft | 433 kts | 197° |
| 2026-05-04 11:44 | -37.17377 | 146.29367 | 35115 ft | 452 kts | 178° |
| 2026-05-04 11:44 | -37.20437 | 146.30363 | 34556 ft | 459 kts | 155° |
| 2026-05-04 11:44 | -37.23049 | 146.32607 | 34072 ft | 454 kts | 129° |
| 2026-05-04 11:45 | -37.24747 | 146.35766 | 33658 ft | 436 kts | 105° |
| 2026-05-04 11:45 | -37.25342 | 146.39369 | 33137 ft | 412 kts | 79° |
| 2026-05-04 11:45 | -37.24763 | 146.42725 | 32651 ft | 381 kts | 53° |
| 2026-05-04 11:45 | -37.23263 | 146.45280 | 32148 ft | 355 kts | 34° |
| 2026-05-04 11:46 | -37.21524 | 146.47507 | 31600 ft | 363 kts | 41° |
| 2026-05-04 11:46 | -37.19855 | 146.49834 | 31230 ft | 350 kts | 30° |
| 2026-05-04 11:46 | -37.17928 | 146.51603 | 30848 ft | 343 kts | 28° |
| 2026-05-04 11:46 | -37.16202 | 146.53746 | 30445 ft | 354 kts | 41° |
| 2026-05-04 11:47 | -37.14652 | 146.56134 | 30053 ft | 353 kts | 41° |
| 2026-05-04 11:47 | -37.13113 | 146.58529 | 29625 ft | 352 kts | 43° |
| 2026-05-04 11:47 | -37.11618 | 146.60945 | 29218 ft | 348 kts | 40° |
| 2026-05-04 11:47 | -37.09887 | 146.62933 | 28673 ft | 328 kts | 20° |
| 2026-05-04 11:48 | -37.07837 | 146.63878 | 28262 ft | 305 kts | 360° |
| 2026-05-04 11:48 | -37.05782 | 146.63710 | 27781 ft | 293 kts | 338° |
| 2026-05-04 11:48 | -37.04037 | 146.62488 | 27371 ft | 288 kts | 317° |
| 2026-05-04 11:48 | -37.02895 | 146.60465 | 26948 ft | 294 kts | 296° |
| 2026-05-04 11:49 | -37.02528 | 146.57915 | 26561 ft | 307 kts | 275° |
| 2026-05-04 11:49 | -37.02981 | 146.55240 | 26128 ft | 322 kts | 260° |
| 2026-05-04 11:49 | -37.03748 | 146.52601 | 25729 ft | 322 kts | 259° |
| 2026-05-04 11:49 | -37.04526 | 146.49977 | 25359 ft | 321 kts | 259° |
| 2026-05-04 11:50 | -37.05304 | 146.47372 | 25075 ft | 317 kts | 259° |
| 2026-05-04 11:50 | -37.06075 | 146.44780 | 24615 ft | 321 kts | 259° |
| 2026-05-04 11:50 | -37.06855 | 146.42120 | 23977 ft | 329 kts | 259° |
| 2026-05-04 11:50 | -37.07636 | 146.39396 | 23357 ft | 336 kts | 259° |
| 2026-05-04 11:51 | -37.08418 | 146.36601 | 22587 ft | 344 kts | 259° |
| 2026-05-04 11:51 | -37.09256 | 146.33762 | 22014 ft | 351 kts | 253° |
| 2026-05-04 11:51 | -37.10300 | 146.31057 | 22028 ft | 338 kts | 251° |
| 2026-05-04 11:51 | -37.11401 | 146.28508 | 21957 ft | 328 kts | 249° |
| 2026-05-04 11:52 | -37.12154 | 146.26884 | 21905 ft | 321 kts | 249° |
| 2026-05-04 11:52 | -37.13296 | 146.24539 | 21836 ft | 311 kts | 248° |
| 2026-05-04 11:52 | -37.14433 | 146.22287 | 21771 ft | 300 kts | 248° |
| 2026-05-04 11:52 | -37.15543 | 146.20126 | 21688 ft | 292 kts | 247° |
| 2026-05-04 11:53 | -37.16665 | 146.17955 | 21632 ft | 303 kts | 247° |
| 2026-05-04 11:53 | -37.17834 | 146.15719 | 21567 ft | 310 kts | 246° |
| 2026-05-04 11:53 | -37.19025 | 146.13451 | 21529 ft | 313 kts | 246° |
| 2026-05-04 11:53 | -37.20229 | 146.11164 | 21454 ft | 314 kts | 246° |
| 2026-05-04 11:55 | -37.28611 | 145.95217 | 20335 ft | 310 kts | 245° |
| 2026-05-04 11:55 | -37.29789 | 145.92968 | 20011 ft | 307 kts | 245° |
| 2026-05-04 11:56 | -37.30965 | 145.90727 | 19652 ft | 306 kts | 245° |
| 2026-05-04 11:56 | -37.32131 | 145.88509 | 19337 ft | 304 kts | 245° |
| 2026-05-04 11:56 | -37.33303 | 145.86273 | 19023 ft | 312 kts | 244° |
| 2026-05-04 11:56 | -37.34525 | 145.83940 | 18646 ft | 327 kts | 244° |
| 2026-05-04 11:57 | -37.35807 | 145.81496 | 18258 ft | 343 kts | 243° |
| 2026-05-04 11:57 | -37.37146 | 145.78944 | 17792 ft | 355 kts | 243° |
| 2026-05-04 11:57 | -37.38503 | 145.76352 | 17335 ft | 350 kts | 243° |
| 2026-05-04 11:57 | -37.39821 | 145.73839 | 16926 ft | 338 kts | 243° |
| 2026-05-04 11:58 | -37.41075 | 145.71441 | 16517 ft | 327 kts | 243° |
| 2026-05-04 11:58 | -37.42301 | 145.69092 | 16141 ft | 316 kts | 243° |
| 2026-05-04 11:58 | -37.43486 | 145.66825 | 15780 ft | 305 kts | 244° |
| 2026-05-04 11:58 | -37.44625 | 145.64645 | 15516 ft | 291 kts | 244° |
| 2026-05-04 11:59 | -37.45802 | 145.62574 | 15118 ft | 294 kts | 240° |
| 2026-05-04 11:59 | -37.47027 | 145.60481 | 14802 ft | 300 kts | 240° |
| 2026-05-04 11:59 | -37.48269 | 145.58347 | 14492 ft | 303 kts | 240° |
| 2026-05-04 11:59 | -37.49508 | 145.56210 | 14171 ft | 301 kts | 240° |
| 2026-05-04 12:00 | -37.50736 | 145.54090 | 13851 ft | 298 kts | 240° |
| 2026-05-04 12:00 | -37.51952 | 145.51988 | 13549 ft | 296 kts | 240° |
| 2026-05-04 12:00 | -37.53157 | 145.49899 | 13198 ft | 294 kts | 240° |
| 2026-05-04 12:00 | -37.54354 | 145.47827 | 12878 ft | 290 kts | 240° |
| 2026-05-04 12:01 | -37.55536 | 145.45781 | 12588 ft | 287 kts | 239° |
| 2026-05-04 12:01 | -37.56713 | 145.43751 | 12247 ft | 286 kts | 240° |
| 2026-05-04 12:02 | -37.63541 | 145.31943 | 10510 ft | 270 kts | 240° |
| 2026-05-04 12:03 | -37.64648 | 145.30023 | 10243 ft | 272 kts | 240° |
| 2026-05-04 12:03 | -37.65776 | 145.28068 | 9950 ft | 278 kts | 240° |
| 2026-05-04 12:03 | -37.66916 | 145.26089 | 9643 ft | 280 kts | 240° |
| 2026-05-04 12:03 | -37.68064 | 145.24096 | 9308 ft | 281 kts | 240° |
| 2026-05-04 12:04 | -37.69210 | 145.22107 | 9003 ft | 279 kts | 240° |
| 2026-05-04 12:04 | -37.70348 | 145.20128 | 8637 ft | 279 kts | 240° |
| 2026-05-04 12:04 | -37.71477 | 145.18163 | 8203 ft | 281 kts | 240° |
| 2026-05-04 12:04 | -37.72627 | 145.16163 | 7813 ft | 282 kts | 241° |
| 2026-05-04 12:05 | -37.73778 | 145.14158 | 7417 ft | 283 kts | 242° |
| 2026-05-04 12:05 | -37.74940 | 145.12135 | 6984 ft | 284 kts | 242° |
| 2026-05-04 12:05 | -37.76087 | 145.10138 | 6513 ft | 279 kts | 242° |
| 2026-05-04 12:05 | -37.77215 | 145.08170 | 6054 ft | 274 kts | 243° |
| 2026-05-04 12:06 | -37.78328 | 145.06229 | 5582 ft | 270 kts | 243° |
| 2026-05-04 12:06 | -37.79411 | 145.04337 | 5204 ft | 263 kts | 243° |
| 2026-05-04 12:06 | -37.80468 | 145.02494 | 4860 ft | 256 kts | 243° |
| 2026-05-04 12:06 | -37.81346 | 145.00612 | 4399 ft | 239 kts | 261° |
| 2026-05-04 12:07 | -37.81724 | 144.98612 | 3991 ft | 232 kts | 265° |
| 2026-05-04 12:07 | -37.82085 | 144.96652 | 3637 ft | 226 kts | 265° |
| 2026-05-04 12:07 | -37.82430 | 144.94739 | 3309 ft | 220 kts | 266° |
| 2026-05-04 12:07 | -37.82687 | 144.92864 | 2971 ft | 214 kts | 269° |
| 2026-05-04 12:08 | -37.82922 | 144.91018 | 2618 ft | 211 kts | 268° |
| 2026-05-04 12:08 | -37.83115 | 144.89222 | 2379 ft | 194 kts | 280° |
| 2026-05-04 12:08 | -37.82723 | 144.87822 | 2264 ft | 157 kts | 317° |
| 2026-05-04 12:08 | -37.81919 | 144.87095 | 2224 ft | 132 kts | 343° |
| 2026-05-04 12:09 | -37.81063 | 144.86802 | 2186 ft | 129 kts | 347° |
| 2026-05-04 12:09 | -37.80150 | 144.86535 | 2342 ft | 140 kts | 347° |
| 2026-05-04 12:09 | -37.79171 | 144.86275 | 2406 ft | 147 kts | 348° |
| 2026-05-04 12:09 | -37.78152 | 144.86027 | 2245 ft | 149 kts | 349° |
| 2026-05-04 12:10 | -37.77148 | 144.85798 | 2040 ft | 141 kts | 347° |
| 2026-05-04 12:10 | -37.76234 | 144.85556 | 1931 ft | 131 kts | 348° |
| 2026-05-04 12:10 | -37.75340 | 144.85366 | 1738 ft | 130 kts | 349° |
| 2026-05-04 12:10 | -37.74448 | 144.85199 | 1522 ft | 128 kts | 351° |
| 2026-05-04 12:11 | -37.73580 | 144.85073 | 1310 ft | 126 kts | 353° |
| 2026-05-04 12:11 | -37.72726 | 144.84924 | 1103 ft | 133 kts | 352° |
| 2026-05-04 12:11 | -37.71828 | 144.84712 | 997 ft | 133 kts | 350° |
| 2026-05-04 12:11 | -37.70929 | 144.84483 | 879 ft | 133 kts | 354° |
| 2026-05-04 12:12 | -37.69995 | 144.84371 | 714 ft | 137 kts | 355° |
| 2026-05-04 12:12 | -37.69058 | 144.84196 | 537 ft | 135 kts | 352° |
| 2026-05-04 12:12 | -37.68141 | 144.84019 | 375 ft | 129 kts | 353° |
| 2026-05-04 12:12 | -37.67368 | 144.83877 | 374 ft | 87 kts | 351° |
| 2026-05-04 12:13 | -37.66972 | 144.83801 | 389 ft | 39 kts | 352° |
| 2026-05-04 12:14 | -37.66673 | 144.83960 | 399 ft | 6 kts | 172° |
| 2026-05-04 12:15 | -37.66715 | 144.84002 | 395 ft | 10 kts | 111° |
| 2026-05-04 12:15 | -37.66714 | 144.84101 | 396 ft | 12 kts | 80° |
| 2026-05-04 12:15 | -37.66703 | 144.84195 | 396 ft | 11 kts | 81° |
| 2026-05-04 12:15 | -37.66691 | 144.84291 | 397 ft | 13 kts | 81° |
| 2026-05-04 12:16 | -37.66677 | 144.84407 | 400 ft | 14 kts | 82° |
| 2026-05-04 12:16 | -37.66663 | 144.84531 | 401 ft | 15 kts | 81° |
| 2026-05-04 12:16 | -37.66644 | 144.84687 | 404 ft | 20 kts | 81° |
| 2026-05-04 12:16 | -37.66644 | 144.84779 | 404 ft | 10 kts | 123° |
| 2026-05-04 12:17 | -37.66707 | 144.84815 | 403 ft | 6 kts | 163° |
| 2026-05-04 12:17 | -37.66727 | 144.84852 | 402 ft | 3 kts | 77° |
| 2026-05-04 12:17 | -37.66721 | 144.84886 | 403 ft | 5 kts | 82° |
| 2026-05-04 12:17 | -37.66719 | 144.84903 | 399 ft | 2 kts | 82° |
| 2026-05-04 12:18 | -37.66719 | 144.84904 | 399 ft | 0 kts | 82° |